Time;durP1;ratioP1;P1;durP2;ratioP2;P2;SDS_P1;SDS_P2;PMS_P1;PMS_P2;Temp;Humidity;BMP_temperature;BMP_pressure;BME280_temperature;BME280_humidity;BME280_pressure;Samples;Min_cycle;Max_cycle;Signal;HPM_P1;HPM_P2
2024/01/15 00:00:07;;;;;;;;;;;11.30;43.20;;;11.45;46.57;99207.69;5072628;28;20014;-35
2024/01/15 00:02:35;;;;;;;;;;;11.30;43.30;;;11.45;46.09;99192.63;5073375;28;19924;-34
2024/01/15 00:05:03;;;;;;;;;;;11.30;43.30;;;11.43;46.50;99191.63;5064750;28;19925;-35
2024/01/15 00:07:31;;;;;;;;;;;11.30;43.30;;;11.44;46.16;99181.75;5072952;28;19924;-35
2024/01/15 00:09:59;;;;;;;;;;;11.30;43.30;;;11.44;46.71;99191.78;5072399;28;19979;-35
2024/01/15 00:12:27;;;;;;;;;;;11.30;43.30;;;11.44;45.81;99195.91;5073211;28;19925;-34
2024/01/15 00:14:55;;;;;;;;;;;11.30;43.30;;;11.40;46.25;99187.16;5072709;28;20198;-37
2024/01/15 00:17:24;;;;;;;;;;;11.30;43.30;;;11.40;46.37;99184.66;5072949;28;19928;-37
2024/01/15 00:19:52;;;;;;;;;;;11.30;43.30;;;11.42;46.22;99182.31;5072620;28;19924;-37
2024/01/15 00:22:20;;;;;;;;;;;11.30;43.30;;;11.47;46.79;99188.69;5072974;28;19928;-37
2024/01/15 00:24:48;;;;;;;;;;;11.30;43.30;;;11.43;45.92;99184.09;5073099;28;20392;-36
2024/01/15 00:27:16;;;;;;;;;;;11.30;43.30;;;11.45;46.57;99177.59;5073809;28;19925;-36
2024/01/15 00:29:44;;;;;;;;;;;11.30;43.30;;;11.47;45.94;99187.06;5072945;28;20388;-37
2024/01/15 00:32:13;;;;;;;;;;;11.30;43.30;;;11.44;46.61;99173.34;5071951;28;19932;-37
2024/01/15 00:34:42;;;;;;;;;;;11.30;43.30;;;11.48;45.84;99172.91;5073233;28;20014;-37
2024/01/15 00:37:10;;;;;;;;;;;11.30;43.30;;;11.45;46.26;99177.59;5073072;28;19945;-37
2024/01/15 00:39:38;;;;;;;;;;;11.30;43.30;;;11.48;46.20;99172.91;5072671;28;19925;-37
2024/01/15 00:42:06;;;;;;;;;;;11.30;43.30;;;11.49;45.68;99169.66;5072252;28;19976;-37
2024/01/15 00:44:34;;;;;;;;;;;11.30;43.30;;;11.48;45.87;99178.81;5072545;28;20007;-37
2024/01/15 00:47:02;;;;;;;;;;;11.30;43.30;;;11.47;46.54;99167.00;5073203;28;20015;-36
2024/01/15 00:49:30;;;;;;;;;;;11.30;43.20;;;11.48;46.69;99162.88;5072751;28;20056;-36
2024/01/15 00:51:59;;;;;;;;;;;11.30;43.20;;;11.50;45.78;99171.44;5075100;28;19928;-36
2024/01/15 00:54:27;;;;;;;;;;;11.40;43.30;;;11.51;46.71;99168.19;5076654;28;19946;-36
2024/01/15 00:56:55;;;;;;;;;;;11.40;43.30;;;11.50;46.76;99181.50;5076510;28;19925;-36
2024/01/15 00:59:23;;;;;;;;;;;11.30;43.20;;;11.50;46.32;99173.97;5076364;28;19929;-35
2024/01/15 01:01:51;;;;;;;;;;;11.30;43.20;;;11.51;46.15;99168.19;5075649;28;19964;-36
2024/01/15 01:04:19;;;;;;;;;;;11.40;43.30;;;11.50;45.87;99172.34;5076101;28;20015;-35
2024/01/15 01:06:48;;;;;;;;;;;11.40;43.30;;;11.46;46.17;99164.31;5075733;28;20463;-35
2024/01/15 01:09:17;;;;;;;;;;;11.40;43.90;;;11.49;46.24;99174.69;5076010;28;19975;-36
2024/01/15 01:11:45;;;;;;;;;;;11.40;43.30;;;11.51;46.57;99168.19;5074985;28;19932;-36
2024/01/15 01:14:13;;;;;;;;;;;11.40;43.30;;;11.54;46.10;99166.00;5075874;28;19929;-36
2024/01/15 01:16:41;;;;;;;;;;;11.40;43.20;;;11.51;46.54;99168.19;5076245;28;20015;-36
2024/01/15 01:19:09;;;;;;;;;;;11.40;43.20;;;11.52;46.34;99170.84;5075845;28;19931;-36
2024/01/15 01:21:37;;;;;;;;;;;11.40;43.20;;;11.51;46.61;99153.13;5074943;28;19979;-36
2024/01/15 01:24:05;;;;;;;;;;;11.40;43.20;;;11.52;45.76;99144.88;5075000;28;19925;-36
2024/01/15 01:26:34;;;;;;;;;;;11.40;43.20;;;11.53;46.19;99159.22;5075204;28;19924;-35
2024/01/15 01:29:02;;;;;;;;;;;11.40;43.20;;;11.51;46.42;99153.13;5075144;28;19924;-36
2024/01/15 01:31:30;;;;;;;;;;;11.40;43.20;;;11.54;46.38;99150.97;5074364;28;20027;-36
2024/01/15 01:33:58;;;;;;;;;;;11.40;43.20;;;11.54;46.51;99153.47;5075051;28;19924;-36
2024/01/15 01:36:26;;;;;;;;;;;11.40;43.20;;;11.56;45.62;99147.00;5075171;28;20054;-36
2024/01/15 01:38:54;;;;;;;;;;;11.40;43.10;;;11.54;46.51;99163.50;5074662;28;20281;-34
2024/01/15 01:41:24;;;;;;;;;;;11.40;43.10;;;11.53;46.61;99146.66;5073937;28;19931;-37
2024/01/15 01:43:53;;;;;;;;;;;11.40;43.10;;;11.54;45.75;99155.97;5075204;28;19975;-37
2024/01/15 01:46:21;;;;;;;;;;;11.40;43.10;;;11.54;45.65;99153.47;5075131;28;19936;-37
2024/01/15 01:48:49;;;;;;;;;;;11.40;43.20;;;11.52;46.17;99160.81;5074566;28;20384;-37
2024/01/15 01:51:17;;;;;;;;;;;11.40;43.10;;;11.55;46.03;99150.22;5073856;28;19924;-37
2024/01/15 01:53:45;;;;;;;;;;;11.40;43.10;;;11.53;45.73;99146.66;5074854;28;19925;-36
2024/01/15 01:56:13;;;;;;;;;;;11.40;43.10;;;11.57;45.93;99153.78;5074361;28;20403;-37
2024/01/15 01:58:41;;;;;;;;;;;11.40;43.10;;;11.56;46.05;99152.00;5075612;28;19924;-36
2024/01/15 02:01:10;;;;;;;;;;;11.40;43.10;;;11.55;46.43;99160.25;5073730;28;19960;-35
2024/01/15 02:03:39;;;;;;;;;;;11.40;43.10;;;11.57;45.75;99154.66;5073710;28;20415;-35
2024/01/15 02:06:07;;;;;;;;;;;11.40;43.10;;;11.59;46.02;99147.28;5074452;28;19935;-35
2024/01/15 02:08:35;;;;;;;;;;;11.40;43.00;;;11.55;45.39;99145.22;5074618;28;19924;-35
2024/01/15 02:11:03;;;;;;;;;;;11.40;43.10;;;11.54;45.75;99138.41;5073605;28;19924;-35
2024/01/15 02:13:31;;;;;;;;;;;11.40;43.10;;;11.56;45.63;99129.44;5074311;28;19924;-35
2024/01/15 02:15:59;;;;;;;;;;;11.40;43.10;;;11.56;45.95;99131.94;5074125;28;20011;-34
2024/01/15 02:18:28;;;;;;;;;;;11.40;43.10;;;11.55;46.21;99122.63;5074215;28;20376;-35
2024/01/15 02:20:56;;;;;;;;;;;11.40;43.00;;;11.56;46.15;99129.44;5073519;28;19924;-36
2024/01/15 02:23:25;;;;;;;;;;;11.40;43.10;;;11.57;45.95;99128.72;5074060;28;19925;-35
2024/01/15 02:25:53;;;;;;;;;;;11.40;43.10;;;11.60;45.42;99134.03;5074140;28;19931;-35
2024/01/15 02:28:21;;;;;;;;;;;11.40;43.00;;;11.59;46.19;99127.22;5065924;28;19925;-35
2024/01/15 02:30:49;;;;;;;;;;;11.50;43.10;;;11.55;45.91;99120.13;5073362;28;19994;-35
2024/01/15 02:33:17;;;;;;;;;;;11.40;43.00;;;11.60;46.08;99136.53;5074207;28;20011;-35
2024/01/15 02:35:46;;;;;;;;;;;11.40;43.00;;;11.60;45.91;99134.03;5074156;28;19964;-35
2024/01/15 02:38:14;;;;;;;;;;;11.40;43.00;;;11.61;46.39;99136.69;5074240;28;19925;-35
2024/01/15 02:40:45;;;;;;;;;;;11.50;43.10;;;11.59;45.98;99137.25;5073067;28;19970;-35
2024/01/15 02:43:13;;;;;;;;;;;11.40;42.90;;;11.60;45.57;99139.03;5073667;28;19950;-35
2024/01/15 02:45:41;;;;;;;;;;;11.40;43.00;;;11.61;46.50;99150.84;5073679;28;20355;-35
2024/01/15 02:48:09;;;;;;;;;;;11.50;43.10;;;11.61;46.20;99145.84;5074180;28;19932;-35
2024/01/15 02:50:37;;;;;;;;;;;11.50;43.10;;;11.61;45.61;99140.81;5073273;28;19925;-35
2024/01/15 02:53:06;;;;;;;;;;;11.40;43.00;;;11.58;46.24;99140.50;5073590;28;20296;-34
2024/01/15 02:55:34;;;;;;;;;;;11.40;43.00;;;11.59;46.05;99139.75;5074092;28;20003;-35
2024/01/15 02:58:04;;;;;;;;;;;11.50;43.10;;;11.61;46.21;99140.81;5073669;28;20011;-34
2024/01/15 03:00:32;;;;;;;;;;;11.50;43.00;;;11.62;45.41;99135.06;5073054;28;20030;-35
2024/01/15 03:02:59;;;;;;;;;;;11.50;43.10;;;11.60;46.12;99136.53;5073470;28;19978;-35
2024/01/15 03:05:27;;;;;;;;;;;11.50;43.10;;;11.59;46.25;99137.25;5073500;28;19924;-35
2024/01/15 03:07:55;;;;;;;;;;;11.40;43.00;;;11.61;45.70;99138.31;5073489;28;19968;-35
2024/01/15 03:10:23;;;;;;;;;;;11.40;43.00;;;11.60;45.75;99144.06;5073050;28;19925;-35
2024/01/15 03:12:51;;;;;;;;;;;11.40;43.00;;;11.59;45.91;99127.22;5072694;28;19959;-35
2024/01/15 03:15:20;;;;;;;;;;;11.40;43.00;;;11.55;45.99;99132.69;5072429;28;19925;-35
2024/01/15 03:17:48;;;;;;;;;;;11.40;43.10;;;11.59;46.05;99137.25;5072710;28;19950;-35
2024/01/15 03:20:16;;;;;;;;;;;11.40;43.00;;;11.62;45.81;99130.06;5071745;28;20358;-34
2024/01/15 03:22:44;;;;;;;;;;;11.40;43.00;;;11.57;45.89;99123.69;5072448;28;19931;-35
2024/01/15 03:25:12;;;;;;;;;;;11.40;43.00;;;11.57;46.37;99128.72;5072427;28;19924;-34
2024/01/15 03:27:40;;;;;;;;;;;11.40;43.00;;;11.57;46.00;99122.03;5072681;28;19924;-34
2024/01/15 03:30:09;;;;;;;;;;;11.40;43.00;;;11.57;46.07;99122.03;5072073;28;19975;-35
2024/01/15 03:32:38;;;;;;;;;;;11.40;43.00;;;11.59;45.59;99124.72;5072305;28;19928;-34
2024/01/15 03:35:07;;;;;;;;;;;11.40;43.00;;;11.56;46.50;99126.94;5072136;28;19931;-34
2024/01/15 03:37:35;;;;;;;;;;;11.40;43.00;;;11.59;45.86;99122.22;5072195;28;19925;-34
2024/01/15 03:40:03;;;;;;;;;;;11.40;43.00;;;11.63;45.77;99122.66;5071593;28;20003;-35
2024/01/15 03:42:32;;;;;;;;;;;11.40;42.90;;;11.60;46.16;99124.00;5072503;28;19928;-35
2024/01/15 03:44:59;;;;;;;;;;;11.40;42.90;;;11.56;45.56;99129.44;5072146;28;19924;-35
2024/01/15 03:47:27;;;;;;;;;;;11.40;42.90;;;11.57;45.60;99143.75;5071876;28;20376;-34
2024/01/15 03:49:57;;;;;;;;;;;11.40;43.00;;;11.60;45.97;99139.94;5071782;28;20348;-35
2024/01/15 03:52:25;;;;;;;;;;;11.40;42.90;;;11.61;45.95;99145.84;5071887;28;20380;-35
2024/01/15 03:54:52;;;;;;;;;;;11.40;42.90;;;11.61;46.01;99140.81;5071837;28;20431;-35
2024/01/15 03:57:20;;;;;;;;;;;11.40;42.90;;;11.55;45.69;99131.06;5072105;28;19939;-35
2024/01/15 03:59:48;;;;;;;;;;;11.40;43.00;;;11.56;46.38;99116.91;5071972;28;19970;-35
2024/01/15 04:02:16;;;;;;;;;;;11.40;43.00;;;11.59;45.95;99125.59;5071243;28;20315;-35
2024/01/15 04:04:44;;;;;;;;;;;11.40;43.60;;;11.66;45.71;99124.59;5072011;28;19933;-35
2024/01/15 04:07:13;;;;;;;;;;;11.40;43.00;;;11.62;45.59;99112.50;5071904;28;20017;-35
2024/01/15 04:09:41;;;;;;;;;;;11.40;42.90;;;11.62;45.74;99112.50;5072006;28;19925;-35
2024/01/15 04:12:10;;;;;;;;;;;11.40;43.00;;;11.61;45.79;99110.72;5071345;28;19924;-35
2024/01/15 04:14:37;;;;;;;;;;;11.40;43.00;;;11.57;45.59;99108.66;5071718;28;20299;-35
2024/01/15 04:17:05;;;;;;;;;;;11.40;42.90;;;11.57;46.44;99113.66;5071478;28;19924;-35
2024/01/15 04:19:33;;;;;;;;;;;11.40;42.90;;;11.55;45.73;99105.97;5072077;28;19925;-35
2024/01/15 04:22:01;;;;;;;;;;;11.40;43.00;;;11.60;45.45;99093.88;5071157;28;20395;-35
2024/01/15 04:24:32;;;;;;;;;;;11.40;42.90;;;11.62;46.14;99092.44;5064121;28;20011;-35
2024/01/15 04:27:00;;;;;;;;;;;11.40;42.90;;;11.60;45.77;99098.91;5075596;28;19924;-35
2024/01/15 04:29:28;;;;;;;;;;;11.40;42.90;;;11.57;45.61;99098.63;5075776;28;19974;-35
2024/01/15 04:31:56;;;;;;;;;;;11.40;43.00;;;11.55;45.75;99095.94;5075417;28;20028;-35
2024/01/15 04:34:24;;;;;;;;;;;11.40;43.00;;;11.55;45.87;99100.97;5075644;28;20241;-35
2024/01/15 04:36:52;;;;;;;;;;;11.40;43.00;;;11.63;45.85;99089.19;5075548;28;19924;-35
2024/01/15 04:39:20;;;;;;;;;;;11.40;42.90;;;11.60;46.12;99096.41;5075788;28;19929;-35
2024/01/15 04:41:49;;;;;;;;;;;11.40;42.90;;;11.59;45.32;99087.09;5074608;28;19924;-35
2024/01/15 04:44:17;;;;;;;;;;;11.40;42.90;;;11.57;46.20;99083.56;5074965;28;19925;-35
2024/01/15 04:46:44;;;;;;;;;;;11.40;42.90;;;11.56;45.93;99089.31;5075739;28;19928;-34
2024/01/15 04:49:12;;;;;;;;;;;11.40;43.00;;;11.58;45.86;99095.34;5075504;28;19924;-35
2024/01/15 04:51:40;;;;;;;;;;;11.40;43.00;;;11.59;45.50;99087.09;5074743;28;19924;-35
2024/01/15 04:54:08;;;;;;;;;;;11.40;43.00;;;11.57;45.93;99083.56;5075580;28;20048;-35
2024/01/15 04:56:36;;;;;;;;;;;11.40;43.00;;;11.57;45.90;99081.06;5075296;28;19928;-35
2024/01/15 04:59:05;;;;;;;;;;;11.40;42.90;;;11.60;45.29;99086.38;5075284;28;19925;-35
2024/01/15 05:01:33;;;;;;;;;;;11.40;43.00;;;11.56;45.85;99076.75;5074663;28;20016;-35
2024/01/15 05:04:01;;;;;;;;;;;11.40;43.00;;;11.53;45.79;99071.44;5075181;28;19924;-35
2024/01/15 05:06:30;;;;;;;;;;;11.40;43.00;;;11.53;46.44;99076.44;5075251;28;20350;-35
2024/01/15 05:08:58;;;;;;;;;;;11.40;43.00;;;11.52;46.12;99074.66;5075038;28;19924;-35
2024/01/15 05:11:25;;;;;;;;;;;11.40;43.00;;;11.49;45.45;99064.34;5074144;28;19938;-35
2024/01/15 05:13:53;;;;;;;;;;;11.40;43.00;;;11.47;46.13;99060.78;5080505;28;19924;-35
2024/01/15 05:16:22;;;;;;;;;;;11.40;43.10;;;11.52;45.35;99058.00;5080974;28;20287;-35
2024/01/15 05:18:50;;;;;;;;;;;11.40;43.10;;;11.50;45.68;99063.63;5078382;28;20014;-35
2024/01/15 05:21:18;;;;;;;;;;;11.40;43.10;;;11.51;46.08;99052.81;5075235;28;19951;-35
2024/01/15 05:23:46;;;;;;;;;;;11.30;43.00;;;11.51;45.44;99045.28;5074881;28;20206;-35
2024/01/15 05:26:14;;;;;;;;;;;11.30;43.00;;;11.47;45.98;99051.63;5075330;28;20023;-35
2024/01/15 05:28:43;;;;;;;;;;;11.30;43.00;;;11.46;46.59;99051.47;5075392;28;19924;-35
2024/01/15 05:31:11;;;;;;;;;;;11.30;43.00;;;11.46;46.68;99043.94;5074971;28;20019;-35
2024/01/15 05:33:40;;;;;;;;;;;11.30;43.10;;;11.46;46.20;99053.97;5075792;28;19924;-35
2024/01/15 05:36:08;;;;;;;;;;;11.30;43.10;;;11.46;46.55;99059.00;5075070;28;19925;-35
2024/01/15 05:38:36;;;;;;;;;;;11.30;43.00;;;11.46;46.09;99064.91;5075036;28;19925;-35
2024/01/15 05:41:05;;;;;;;;;;;11.30;43.10;;;11.48;45.98;99062.56;5074344;28;19924;-35
2024/01/15 05:43:33;;;;;;;;;;;11.30;43.10;;;11.47;46.56;99055.75;5074812;28;20024;-36
2024/01/15 05:46:01;;;;;;;;;;;11.40;43.10;;;11.47;46.17;99060.78;5074231;28;19950;-36
2024/01/15 05:48:29;;;;;;;;;;;11.30;43.70;;;11.46;46.31;99056.50;5074241;28;19975;-36
2024/01/15 05:50:58;;;;;;;;;;;11.30;43.00;;;11.48;46.05;99062.56;5073211;28;19952;-35
2024/01/15 05:53:26;;;;;;;;;;;11.30;43.00;;;11.49;46.35;99050.19;5074276;28;20017;-35
2024/01/15 05:55:55;;;;;;;;;;;11.30;43.00;;;11.51;46.34;99047.81;5074022;28;20019;-35
2024/01/15 05:58:23;;;;;;;;;;;11.40;43.40;;;11.48;46.16;99047.50;5074487;28;19964;-35
2024/01/15 06:00:51;;;;;;;;;;;11.40;43.00;;;11.52;46.04;99054.59;5073194;28;19924;-35
2024/01/15 06:03:19;;;;;;;;;;;11.40;43.00;;;11.53;46.08;99056.38;5073743;28;19925;-35
2024/01/15 06:05:47;;;;;;;;;;;11.40;43.00;;;11.53;45.69;99051.34;5074110;28;19925;-36
2024/01/15 06:08:17;;;;;;;;;;;11.40;43.00;;;11.53;46.28;99052.25;5073870;28;19924;-35
2024/01/15 06:10:44;;;;;;;;;;;11.40;43.00;;;11.51;46.01;99042.78;5073099;28;20358;-35
2024/01/15 06:13:13;;;;;;;;;;;11.40;43.00;;;11.55;46.19;99040.75;5073711;28;19986;-35
2024/01/15 06:15:41;;;;;;;;;;;11.40;43.00;;;11.55;46.35;99044.88;5073312;28;20027;-35
2024/01/15 06:18:09;;;;;;;;;;;11.40;43.00;;;11.53;46.10;99041.34;5073602;28;19928;-35
2024/01/15 06:20:38;;;;;;;;;;;11.40;43.10;;;11.52;46.38;99044.56;5073007;28;20147;-35
2024/01/15 06:23:06;;;;;;;;;;;11.40;43.00;;;11.54;46.32;99048.13;5073661;28;19930;-36
2024/01/15 06:25:35;;;;;;;;;;;11.40;43.00;;;11.52;46.23;99039.53;5065294;28;20017;-35
2024/01/15 06:28:04;;;;;;;;;;;11.40;43.60;;;11.51;46.27;99037.78;5073278;28;19931;-35
2024/01/15 06:30:32;;;;;;;;;;;11.40;43.00;;;11.52;45.65;99039.53;5072141;28;20426;-36
2024/01/15 06:33:00;;;;;;;;;;;11.40;43.00;;;11.52;45.45;99044.56;5073395;28;19924;-35
2024/01/15 06:35:28;;;;;;;;;;;11.40;43.00;;;11.56;46.33;99051.69;5073131;28;19931;-35
2024/01/15 06:37:56;;;;;;;;;;;11.40;43.00;;;11.52;45.85;99049.59;5073182;28;19924;-36
2024/01/15 06:40:24;;;;;;;;;;;11.40;43.00;;;11.51;45.83;99048.69;5072371;28;20017;-36
2024/01/15 06:42:54;;;;;;;;;;;11.40;43.00;;;11.51;46.26;99045.28;5072943;28;19924;-35
2024/01/15 06:45:22;;;;;;;;;;;11.40;43.00;;;11.54;45.61;99053.13;5073128;28;20008;-35
2024/01/15 06:47:49;;;;;;;;;;;11.40;42.90;;;11.55;46.03;99039.88;5072442;28;19924;-35
2024/01/15 06:50:18;;;;;;;;;;;11.40;43.00;;;11.53;46.00;99041.34;5073226;28;19963;-35
2024/01/15 06:52:45;;;;;;;;;;;11.40;43.00;;;11.52;45.97;99044.56;5073740;28;20015;-36
2024/01/15 06:55:14;;;;;;;;;;;11.40;43.00;;;11.53;45.41;99042.22;5073327;28;19975;-35
2024/01/15 06:57:42;;;;;;;;;;;11.40;43.00;;;11.54;46.27;99043.09;5073577;28;19924;-36
2024/01/15 07:00:13;;;;;;;;;;;11.40;42.90;;;11.50;45.76;99041.03;5072894;28;19924;-36
2024/01/15 07:02:41;;;;;;;;;;;11.40;42.90;;;11.52;46.10;99044.56;5073244;28;19932;-36
2024/01/15 07:05:09;;;;;;;;;;;11.40;43.00;;;11.53;46.62;99051.34;5073185;28;20381;-36
2024/01/15 07:07:37;;;;;;;;;;;11.40;43.00;;;11.54;46.08;99055.66;5072841;28;19932;-36
2024/01/15 07:10:07;;;;;;;;;;;11.40;43.00;;;11.53;46.13;99061.41;5071637;28;19947;-36
2024/01/15 07:12:35;;;;;;;;;;;11.40;43.00;;;11.53;46.18;99066.41;5072544;28;20351;-35
2024/01/15 07:15:04;;;;;;;;;;;11.40;43.00;;;11.55;45.35;99067.47;5072627;28;19925;-36
2024/01/15 07:17:33;;;;;;;;;;;11.40;43.00;;;11.54;45.32;99064.06;5072983;28;19932;-35
2024/01/15 07:20:01;;;;;;;;;;;11.40;43.00;;;11.52;46.14;99064.63;5072137;28;19925;-35
2024/01/15 07:22:29;;;;;;;;;;;11.40;43.00;;;11.51;45.96;99067.88;5072578;28;20023;-35
2024/01/15 07:24:57;;;;;;;;;;;11.40;43.10;;;11.52;45.89;99074.66;5072929;28;20422;-35
2024/01/15 07:27:25;;;;;;;;;;;11.40;43.00;;;11.51;45.35;99063.75;5072594;28;20372;-35
2024/01/15 07:29:53;;;;;;;;;;;11.40;43.00;;;11.53;45.69;99068.91;5072654;28;19928;-35
2024/01/15 07:32:22;;;;;;;;;;;11.40;43.00;;;11.54;45.61;99063.16;5071886;28;19924;-36
2024/01/15 07:34:51;;;;;;;;;;;11.40;43.10;;;11.52;46.19;99055.50;5072247;28;19977;-36
2024/01/15 07:37:19;;;;;;;;;;;11.40;43.70;;;11.51;45.71;99052.81;5072648;28;19928;-35
2024/01/15 07:39:47;;;;;;;;;;;11.40;43.10;;;11.51;46.16;99052.81;5072237;28;20027;-35
2024/01/15 07:42:15;;;;;;;;;;;11.40;43.10;;;11.53;46.18;99057.25;5071917;28;19924;-36
2024/01/15 07:44:44;;;;;;;;;;;11.40;43.00;;;11.53;45.97;99061.41;5072400;28;19924;-35
2024/01/15 07:47:13;;;;;;;;;;;11.40;43.00;;;11.53;46.19;99066.41;5072132;28;20404;-35
2024/01/15 07:49:40;;;;;;;;;;;11.40;43.00;;;11.53;46.14;99066.41;5071999;28;19960;-36
2024/01/15 07:52:12;;;;;;;;;;;11.40;43.00;;;11.53;46.07;99066.41;5071973;28;19931;-35
2024/01/15 07:54:40;;;;;;;;;;;11.40;43.00;;;11.55;45.42;99064.94;5072397;28;20011;-36
2024/01/15 07:57:08;;;;;;;;;;;11.40;43.00;;;11.54;46.39;99073.22;5072292;28;19924;-36
2024/01/15 07:59:36;;;;;;;;;;;11.40;43.00;;;11.57;45.54;99068.50;5071640;28;19963;-35
2024/01/15 08:02:04;;;;;;;;;;;11.40;43.00;;;11.55;45.93;99075.88;5071192;28;19924;-36
2024/01/15 08:04:32;;;;;;;;;;;11.40;42.90;;;11.53;46.14;99082.34;5071825;28;20372;-36
2024/01/15 08:07:00;;;;;;;;;;;11.40;43.00;;;11.57;45.95;99073.53;5071959;28;20346;-36
2024/01/15 08:09:30;;;;;;;;;;;11.40;43.00;;;11.61;45.61;99078.09;5071781;28;19932;-36
2024/01/15 08:11:58;;;;;;;;;;;11.40;43.00;;;11.60;46.09;99083.84;5063820;28;19974;-36
2024/01/15 08:14:26;;;;;;;;;;;11.40;42.90;;;11.57;45.71;99076.03;5067179;28;19924;-36
2024/01/15 08:16:54;;;;;;;;;;;11.40;43.00;;;11.58;46.19;99086.19;5067155;28;19928;-36
2024/01/15 08:19:22;;;;;;;;;;;11.40;42.90;;;11.60;46.02;99087.25;5069457;28;19989;-36
2024/01/15 08:21:50;;;;;;;;;;;11.50;43.00;;;11.62;46.39;99083.28;5071206;28;19935;-36
2024/01/15 08:24:18;;;;;;;;;;;11.40;42.90;;;11.58;46.10;99066.13;5071542;28;20465;-36
2024/01/15 08:26:48;;;;;;;;;;;11.40;42.90;;;11.57;46.45;99063.50;5071781;28;19925;-36
2024/01/15 08:29:16;;;;;;;;;;;11.40;43.00;;;11.62;46.14;99064.84;5071740;28;20047;-36
2024/01/15 08:31:43;;;;;;;;;;;11.40;43.00;;;11.61;45.84;99070.59;5071567;28;19928;-35
2024/01/15 08:34:12;;;;;;;;;;;11.50;43.00;;;11.60;46.24;99059.66;5071898;28;20311;-36
2024/01/15 08:36:40;;;;;;;;;;;11.50;43.00;;;11.61;46.44;99060.56;5071548;28;19970;-36
2024/01/15 08:39:08;;;;;;;;;;;11.40;42.90;;;11.61;45.68;99055.53;5071722;28;19935;-36
2024/01/15 08:41:37;;;;;;;;;;;11.50;43.00;;;11.63;45.50;99059.94;5070526;28;20015;-36
2024/01/15 08:44:06;;;;;;;;;;;11.50;43.00;;;11.63;45.92;99059.94;5072126;28;20034;-36
2024/01/15 08:46:34;;;;;;;;;;;11.50;43.00;;;11.63;45.96;99054.06;5071885;28;19925;-36
2024/01/15 08:49:03;;;;;;;;;;;11.50;43.00;;;11.63;46.05;99059.09;5071571;28;19979;-36
2024/01/15 08:51:31;;;;;;;;;;;11.50;43.00;;;11.66;45.91;99064.41;5070846;28;20007;-36
2024/01/15 08:53:59;;;;;;;;;;;11.50;42.90;;;11.63;45.77;99064.97;5071403;28;19932;-36
2024/01/15 08:56:27;;;;;;;;;;;11.50;43.00;;;11.63;45.86;99059.09;5071283;28;19925;-36
2024/01/15 08:58:56;;;;;;;;;;;11.50;43.00;;;11.66;46.28;99069.41;5073125;28;20012;-35
2024/01/15 09:01:26;;;;;;;;;;;11.50;43.00;;;11.64;45.59;99065.84;5072015;28;19925;-37
2024/01/15 09:03:55;;;;;;;;;;;11.50;43.00;;;11.61;45.57;99070.59;5072144;28;19925;-35
2024/01/15 09:06:23;;;;;;;;;;;11.50;43.00;;;11.60;45.98;99068.81;5072042;28;19925;-36
2024/01/15 09:08:52;;;;;;;;;;;11.50;43.00;;;11.63;45.41;99071.63;5071621;28;20342;-36
2024/01/15 09:11:20;;;;;;;;;;;11.50;43.70;;;11.65;46.10;99067.63;5071936;28;20459;-36
2024/01/15 09:13:48;;;;;;;;;;;11.50;43.00;;;11.66;45.93;99074.44;5075465;28;19967;-36
2024/01/15 09:16:16;;;;;;;;;;;11.50;43.00;;;11.65;46.33;99073.53;5075349;28;19970;-36
2024/01/15 09:18:46;;;;;;;;;;;11.50;43.00;;;11.64;45.88;99075.88;5075347;28;19924;-36
2024/01/15 09:21:15;;;;;;;;;;;11.50;43.00;;;11.65;46.39;99067.63;5074218;28;20402;-36
2024/01/15 09:23:43;;;;;;;;;;;11.50;43.00;;;11.65;46.48;99070.16;5075199;28;19925;-37
2024/01/15 09:26:11;;;;;;;;;;;11.50;43.00;;;11.63;45.60;99074.13;5075128;28;19925;-35
2024/01/15 09:28:39;;;;;;;;;;;11.50;43.00;;;11.62;45.63;99067.34;5075052;28;19939;-36
2024/01/15 09:31:07;;;;;;;;;;;11.50;43.60;;;11.63;45.92;99064.13;5074781;28;20334;-36
2024/01/15 09:33:35;;;;;;;;;;;11.50;43.00;;;11.64;45.70;99068.38;5074778;28;19931;-36
2024/01/15 09:36:06;;;;;;;;;;;11.50;43.00;;;11.62;45.38;99062.34;5074984;28;19928;-36
2024/01/15 09:38:34;;;;;;;;;;;11.50;43.00;;;11.61;45.94;99070.59;5074600;28;20395;-36
2024/01/15 09:41:03;;;;;;;;;;;11.50;43.70;;;11.61;46.23;99068.97;5074966;28;19974;-36
2024/01/15 09:43:31;;;;;;;;;;;11.50;43.00;;;11.64;46.03;99070.88;5075220;28;19925;-36
2024/01/15 09:45:59;;;;;;;;;;;11.50;43.00;;;11.65;46.44;99077.66;5074985;28;19935;-36
2024/01/15 09:48:28;;;;;;;;;;;11.50;43.00;;;11.63;45.43;99079.16;5074760;28;20015;-35
2024/01/15 09:50:56;;;;;;;;;;;11.50;43.00;;;11.66;46.00;99079.44;5074087;28;19924;-35
2024/01/15 09:53:26;;;;;;;;;;;11.50;43.00;;;11.68;45.95;99078.00;5075094;28;19991;-35
2024/01/15 09:55:54;;;;;;;;;;;11.50;43.00;;;11.65;46.01;99067.63;5074932;28;19947;-35
2024/01/15 09:58:22;;;;;;;;;;;11.50;43.00;;;11.65;46.29;99072.66;5074990;28;19925;-35
2024/01/15 10:00:51;;;;;;;;;;;11.50;43.00;;;11.52;45.67;99049.59;5073686;28;20402;-35
2024/01/15 10:03:19;;;;;;;;;;;11.50;43.00;;;11.67;46.13;99066.19;5074862;28;19924;-35
2024/01/15 10:05:50;;;;;;;;;;;11.50;43.00;;;11.69;45.40;99074.75;5066964;28;19931;-35
2024/01/15 10:08:18;;;;;;;;;;;11.50;43.00;;;11.59;45.74;99051.97;5075015;28;19925;-36
2024/01/15 10:10:48;;;;;;;;;;;11.50;43.00;;;11.63;46.09;99059.09;5074627;28;20023;-36
2024/01/15 10:13:16;;;;;;;;;;;11.50;43.00;;;11.67;45.75;99063.66;5074585;28;19970;-35
2024/01/15 10:15:46;;;;;;;;;;;11.50;42.90;;;11.66;45.57;99059.38;5074914;28;19931;-36
2024/01/15 10:18:14;;;;;;;;;;;11.50;43.00;;;11.66;46.23;99069.41;5074553;28;20369;-35
2024/01/15 10:20:43;;;;;;;;;;;11.50;43.00;;;11.64;46.21;99068.38;5074138;28;19929;-35
2024/01/15 10:23:11;;;;;;;;;;;11.50;43.00;;;11.65;45.84;99065.13;5074052;28;19925;-35
2024/01/15 10:25:40;;;;;;;;;;;11.50;43.00;;;11.65;46.30;99072.66;5074557;28;19967;-36
2024/01/15 10:28:10;;;;;;;;;;;11.50;43.00;;;11.65;45.96;99067.63;5074566;28;20455;-36
2024/01/15 10:30:38;;;;;;;;;;;11.50;43.00;;;11.65;45.42;99070.16;5074206;28;20182;-35
2024/01/15 10:33:06;;;;;;;;;;;11.50;43.00;;;11.61;45.90;99070.59;5073887;28;19931;-35
2024/01/15 10:35:35;;;;;;;;;;;11.50;43.00;;;11.61;45.80;99065.56;5073546;28;19925;-35
2024/01/15 10:38:04;;;;;;;;;;;11.50;43.10;;;11.61;46.02;99075.59;5074214;28;20280;-35
2024/01/15 10:40:32;;;;;;;;;;;11.50;43.10;;;11.63;45.80;99074.13;5073010;28;19950;-36
2024/01/15 10:43:01;;;;;;;;;;;11.50;43.10;;;11.59;45.99;99069.53;5074052;28;19967;-35
2024/01/15 10:45:30;;;;;;;;;;;11.40;43.00;;;11.58;46.19;99065.25;5073972;28;20464;-36
2024/01/15 10:48:00;;;;;;;;;;;11.40;43.00;;;11.60;45.88;99063.78;5074614;28;20327;-35
2024/01/15 10:50:28;;;;;;;;;;;11.40;43.00;;;11.61;45.67;99060.56;5073018;28;19924;-35
2024/01/15 10:52:56;;;;;;;;;;;11.50;43.10;;;11.59;46.08;99057.00;5073182;28;19958;-35
2024/01/15 10:55:25;;;;;;;;;;;11.50;43.10;;;11.56;45.71;99057.59;5073401;28;19986;-35
2024/01/15 10:57:53;;;;;;;;;;;11.40;43.00;;;11.57;46.06;99054.31;5073539;28;20427;-35
2024/01/15 11:00:22;;;;;;;;;;;11.40;43.10;;;11.61;45.72;99055.53;5072881;28;19924;-36
2024/01/15 11:02:51;;;;;;;;;;;11.40;43.10;;;11.61;45.88;99050.53;5073188;28;19925;-36
2024/01/15 11:05:22;;;;;;;;;;;11.40;43.00;;;11.57;46.19;99053.47;5072881;28;20011;-36
2024/01/15 11:07:50;;;;;;;;;;;11.40;43.10;;;11.58;46.38;99055.22;5073558;28;19981;-36
2024/01/15 11:10:38;;;;;;;;;;;11.40;43.10;;;11.60;46.06;99056.25;5072300;28;20388;-36
2024/01/15 11:13:08;;;;;;;;;;;11.50;43.20;;;11.59;45.97;99057.00;5064313;28;20015;-36
2024/01/15 11:16:00;;;;;;;;;;;11.50;43.10;;;11.58;45.71;99055.22;5072480;28;19925;-36
2024/01/15 11:18:31;;;;;;;;;;;11.50;43.10;;;11.59;45.76;99057.00;5073195;28;19924;-36
2024/01/15 11:21:29;;;;;;;;;;;11.40;43.10;;;11.59;46.25;99051.97;5072167;28;20214;-35